Time;durP1;ratioP1;P1;durP2;ratioP2;P2;SDS_P1;SDS_P2;PMS_P1;PMS_P2;Temp;Humidity;BMP_temperature;BMP_pressure;BME280_temperature;BME280_humidity;BME280_pressure;Samples;Min_cycle;Max_cycle;Signal;HPM_P1;HPM_P2
2022/10/14 00:01:09;;;;;;;19.27;15.63;;;;;;;;;;5005709;28;20416;-77
2022/10/14 00:03:36;;;;;;;19.20;14.87;;;;;;;;;;4999715;28;20439;-77
2022/10/14 00:06:09;;;;;;;17.63;15.47;;;;;;;;;;5004887;28;20871;-78
2022/10/14 00:08:36;;;;;;;15.27;13.70;;;;;;;;;;5004885;28;20478;-78
2022/10/14 00:11:06;;;;;;;18.03;15.97;;;;;;;;;;5008272;28;20799;-78
2022/10/14 00:13:32;;;;;;;19.27;15.33;;;;;;;;;;5005554;28;20895;-78
2022/10/14 00:15:58;;;;;;;20.57;16.50;;;;;;;;;;5008420;28;20442;-79
2022/10/14 00:18:24;;;;;;;16.70;15.00;;;;;;;;;;5005422;28;20458;-77
2022/10/14 00:20:54;;;;;;;20.47;16.87;;;;;;;;;;5008792;28;20984;-78
2022/10/14 00:23:20;;;;;;;18.60;14.00;;;;;;;;;;5004998;28;20439;-77
2022/10/14 00:25:46;;;;;;;21.47;16.43;;;;;;;;;;5008477;28;20759;-80
2022/10/14 00:28:12;;;;;;;17.57;15.70;;;;;;;;;;5006096;28;20538;-79
2022/10/14 00:30:38;;;;;;;20.47;17.63;;;;;;;;;;5008407;28;20428;-78
2022/10/14 00:33:04;;;;;;;18.10;14.73;;;;;;;;;;5005383;28;20904;-78
2022/10/14 00:35:33;;;;;;;17.80;16.00;;;;;;;;;;5008740;28;20399;-79
2022/10/14 00:37:59;;;;;;;21.83;17.03;;;;;;;;;;5004889;28;20846;-78
2022/10/14 00:40:26;;;;;;;19.60;17.27;;;;;;;;;;5008115;28;20828;-78
2022/10/14 00:42:52;;;;;;;20.60;17.27;;;;;;;;;;5006850;28;20485;-78
2022/10/14 00:45:22;;;;;;;19.80;15.43;;;;;;;;;;5006401;28;20838;-77
2022/10/14 00:47:49;;;;;;;17.90;15.23;;;;;;;;;;5006960;28;20470;-78
2022/10/14 00:50:15;;;;;;;21.23;16.00;;;;;;;;;;5005985;28;20439;-78
2022/10/14 00:52:41;;;;;;;20.77;16.47;;;;;;;;;;5004616;28;20443;-78
2022/10/14 00:55:10;;;;;;;16.87;15.17;;;;;;;;;;5005848;28;20439;-78
2022/10/14 00:57:36;;;;;;;23.50;16.10;;;;;;;;;;5006692;28;20428;-77
2022/10/14 01:00:10;;;;;;;16.93;15.17;;;;;;;;;;5005705;28;20444;-78
2022/10/14 01:02:36;;;;;;;18.67;16.00;;;;;;;;;;5006664;28;20554;-78
2022/10/14 01:05:03;;;;;;;18.70;15.70;;;;;;;;;;5005948;28;20510;-78
2022/10/14 01:07:29;;;;;;;19.70;15.07;;;;;;;;;;5006153;28;20471;-78
2022/10/14 01:10:08;;;;;;;22.13;16.67;;;;;;;;;;5005468;28;20773;-78
2022/10/14 01:12:43;;;;;;;19.17;15.50;;;;;;;;;;5005796;28;20459;-78
2022/10/14 01:15:12;;;;;;;16.93;15.33;;;;;;;;;;5003516;28;20474;-79
2022/10/14 01:17:47;;;;;;;24.03;17.17;;;;;;;;;;5006282;28;20937;-78
2022/10/14 01:20:18;;;;;;;18.77;16.53;;;;;;;;;;5003511;28;20465;-77
2022/10/14 01:22:52;;;;;;;19.23;16.50;;;;;;;;;;5004029;28;20447;-77
2022/10/14 01:25:24;;;;;;;19.10;15.43;;;;;;;;;;5004530;28;20534;-78
2022/10/14 01:28:08;;;;;;;19.20;17.20;;;;;;;;;;5005774;28;21010;-78
2022/10/14 01:30:38;;;;;;;23.17;16.13;;;;;;;;;;5007496;28;20422;-78
2022/10/14 01:33:07;;;;;;;19.63;14.97;;;;;;;;;;5005296;28;20510;-78
2022/10/14 01:35:46;;;;;;;16.87;15.17;;;;;;;;;;5006975;28;20795;-79
2022/10/14 01:38:12;;;;;;;17.70;15.90;;;;;;;;;;5003382;28;20419;-79
2022/10/14 01:40:45;;;;;;;16.37;14.47;;;;;;;;;;5006708;28;20412;-79
2022/10/14 01:43:13;;;;;;;16.00;14.40;;;;;;;;;;5004015;28;20447;-78
2022/10/14 01:45:40;;;;;;;16.23;14.50;;;;;;;;;;5002588;28;20427;-78
2022/10/14 01:48:07;;;;;;;17.20;12.93;;;;;;;;;;5015557;28;20473;-78
2022/10/14 01:50:34;;;;;;;16.83;15.07;;;;;;;;;;5020421;28;20436;-78
2022/10/14 01:53:00;;;;;;;17.27;14.73;;;;;;;;;;5006420;28;20428;-78
2022/10/14 01:55:30;;;;;;;16.53;14.83;;;;;;;;;;5005234;28;21139;-78
2022/10/14 01:57:57;;;;;;;16.97;14.40;;;;;;;;;;5004738;28;20941;-78
2022/10/14 02:00:23;;;;;;;17.17;14.57;;;;;;;;;;5004864;28;20856;-78
2022/10/14 02:02:49;;;;;;;16.77;15.07;;;;;;;;;;5004925;28;20776;-77
2022/10/14 02:05:21;;;;;;;19.83;16.27;;;;;;;;;;5004812;28;20451;-78
2022/10/14 02:07:49;;;;;;;19.60;16.67;;;;;;;;;;4994050;28;20471;-79
2022/10/14 02:10:18;;;;;;;24.17;17.80;;;;;;;;;;5004622;28;20444;-77
2022/10/14 02:13:07;;;;;;;29.27;20.50;;;;;;;;;;5004231;28;20563;-78
2022/10/14 02:15:41;;;;;;;28.60;21.00;;;;;;;;;;4996891;28;20478;-80
2022/10/14 02:18:22;;;;;;;30.03;21.93;;;;;;;;;;4996717;28;20446;-77
2022/10/14 02:20:54;;;;;;;29.13;20.60;;;;;;;;;;5006296;28;20427;-78
2022/10/14 02:23:23;;;;;;;31.20;22.83;;;;;;;;;;5003375;28;20461;-78
2022/10/14 02:25:49;;;;;;;31.70;22.50;;;;;;;;;;5006169;28;20439;-79
2022/10/14 02:28:17;;;;;;;25.03;20.50;;;;;;;;;;5003707;28;20894;-79
2022/10/14 02:30:49;;;;;;;32.10;21.33;;;;;;;;;;5005446;28;20693;-78
2022/10/14 02:33:19;;;;;;;23.00;20.50;;;;;;;;;;5005250;28;20829;-78
2022/10/14 02:35:47;;;;;;;27.13;22.00;;;;;;;;;;5006279;28;20436;-77
2022/10/14 02:38:13;;;;;;;29.00;20.80;;;;;;;;;;5004347;28;20432;-78
2022/10/14 02:40:41;;;;;;;22.80;19.37;;;;;;;;;;5004016;28;20647;-78
2022/10/14 02:43:09;;;;;;;23.23;19.57;;;;;;;;;;5004021;28;20738;-78
2022/10/14 02:45:35;;;;;;;19.40;16.20;;;;;;;;;;5001813;28;21040;-78
2022/10/14 02:48:01;;;;;;;20.37;17.00;;;;;;;;;;5004195;28;20851;-78
2022/10/14 02:50:27;;;;;;;17.63;15.60;;;;;;;;;;5002338;28;20606;-78
2022/10/14 02:52:53;;;;;;;17.57;15.77;;;;;;;;;;5004324;28;20446;-78
2022/10/14 02:55:19;;;;;;;15.17;13.60;;;;;;;;;;5004128;28;20534;-78
2022/10/14 02:57:45;;;;;;;17.97;14.60;;;;;;;;;;5004048;28;20444;-78
2022/10/14 03:00:11;;;;;;;17.67;15.87;;;;;;;;;;5003907;28;20885;-79
2022/10/14 03:02:37;;;;;;;18.23;15.10;;;;;;;;;;5004574;28;20427;-79
2022/10/14 03:05:03;;;;;;;15.57;13.80;;;;;;;;;;5003240;28;20443;-79
2022/10/14 03:07:29;;;;;;;20.00;14.40;;;;;;;;;;5003900;28;20830;-79
2022/10/14 03:09:55;;;;;;;15.07;13.57;;;;;;;;;;5003615;28;20436;-78
2022/10/14 03:12:21;;;;;;;15.90;14.20;;;;;;;;;;5004217;28;20516;-79
2022/10/14 03:14:47;;;;;;;15.53;13.93;;;;;;;;;;5003818;28;20537;-79
2022/10/14 03:17:13;;;;;;;15.80;14.10;;;;;;;;;;5004047;28;20755;-79
2022/10/14 03:19:39;;;;;;;17.90;14.57;;;;;;;;;;5003528;28;20435;-79
2022/10/14 03:22:05;;;;;;;15.20;13.70;;;;;;;;;;5003977;28;20459;-78
2022/10/14 03:24:31;;;;;;;19.20;14.10;;;;;;;;;;5003844;28;20438;-79
2022/10/14 03:26:57;;;;;;;16.03;13.97;;;;;;;;;;5003944;28;20427;-78
2022/10/14 03:29:24;;;;;;;16.40;12.83;;;;;;;;;;5003756;28;20725;-78
2022/10/14 03:31:50;;;;;;;15.57;13.97;;;;;;;;;;5004186;28;20447;-77
2022/10/14 03:34:16;;;;;;;15.30;13.80;;;;;;;;;;5001893;28;20439;-78
2022/10/14 03:36:41;;;;;;;17.23;14.73;;;;;;;;;;5005405;28;20427;-78
2022/10/14 03:39:09;;;;;;;16.43;13.97;;;;;;;;;;5001606;28;20451;-78
2022/10/14 03:41:35;;;;;;;22.10;15.47;;;;;;;;;;5006498;28;20424;-78
2022/10/14 03:44:01;;;;;;;17.17;15.37;;;;;;;;;;5006100;28;20435;-78
2022/10/14 03:46:27;;;;;;;20.60;14.63;;;;;;;;;;5004541;28;20462;-78
2022/10/14 03:48:53;;;;;;;16.17;14.43;;;;;;;;;;5005224;28;20481;-78
2022/10/14 03:51:19;;;;;;;15.80;13.97;;;;;;;;;;5009006;28;20478;-78
2022/10/14 03:53:45;;;;;;;16.50;14.67;;;;;;;;;;5005947;28;20461;-77
2022/10/14 03:56:11;;;;;;;15.73;14.13;;;;;;;;;;5016336;28;20502;-77
2022/10/14 03:58:37;;;;;;;15.63;13.93;;;;;;;;;;5008690;28;20523;-77
2022/10/14 04:01:03;;;;;;;21.00;16.33;;;;;;;;;;5007836;28;21009;-78
2022/10/14 04:03:29;;;;;;;16.47;14.80;;;;;;;;;;5007072;28;20534;-77
2022/10/14 04:05:55;;;;;;;16.67;14.97;;;;;;;;;;5006755;28;20427;-78
2022/10/14 04:08:21;;;;;;;16.20;14.60;;;;;;;;;;5006063;28;20458;-77
2022/10/14 04:10:54;;;;;;;18.17;15.70;;;;;;;;;;5006779;28;20581;-77
2022/10/14 04:13:20;;;;;;;21.47;16.10;;;;;;;;;;5006623;28;20459;-78
2022/10/14 04:15:46;;;;;;;18.40;15.33;;;;;;;;;;5006689;28;20819;-78
2022/10/14 04:18:12;;;;;;;16.97;15.23;;;;;;;;;;5007289;28;20573;-77
2022/10/14 04:20:38;;;;;;;18.37;16.20;;;;;;;;;;5002418;28;20464;-77
2022/10/14 04:23:04;;;;;;;19.37;15.87;;;;;;;;;;5013402;28;20933;-77
2022/10/14 04:25:30;;;;;;;19.13;15.47;;;;;;;;;;5006381;28;20454;-77
2022/10/14 04:27:56;;;;;;;18.27;15.70;;;;;;;;;;5005979;28;20486;-77
2022/10/14 04:30:22;;;;;;;18.07;14.47;;;;;;;;;;5004940;28;20842;-78
2022/10/14 04:32:48;;;;;;;17.77;15.97;;;;;;;;;;5006160;28;20432;-77
2022/10/14 04:35:14;;;;;;;18.13;14.87;;;;;;;;;;5005966;28;20470;-77
2022/10/14 04:37:40;;;;;;;16.00;13.50;;;;;;;;;;5006741;28;20779;-77
2022/10/14 04:40:06;;;;;;;13.10;11.90;;;;;;;;;;5006615;28;20478;-77
2022/10/14 04:42:32;;;;;;;17.80;13.70;;;;;;;;;;5006794;28;21386;-77
2022/10/14 04:44:58;;;;;;;16.50;13.57;;;;;;;;;;5003696;28;20859;-77
2022/10/14 04:47:24;;;;;;;14.47;12.03;;;;;;;;;;5006486;28;20471;-77
2022/10/14 04:49:50;;;;;;;12.30;11.00;;;;;;;;;;5005911;28;20497;-77
2022/10/14 04:52:16;;;;;;;13.60;12.20;;;;;;;;;;5006163;28;20424;-78
2022/10/14 04:54:42;;;;;;;13.87;12.47;;;;;;;;;;5004572;28;20443;-76
2022/10/14 04:57:08;;;;;;;13.40;12.00;;;;;;;;;;5005780;28;20953;-78
2022/10/14 04:59:35;;;;;;;12.87;11.70;;;;;;;;;;5004399;28;20439;-78
2022/10/14 05:02:01;;;;;;;12.37;11.27;;;;;;;;;;5006060;28;20428;-78
2022/10/14 05:04:26;;;;;;;9.23;8.40;;;;;;;;;;5036025;28;20466;-77
2022/10/14 05:06:52;;;;;;;10.43;9.53;;;;;;;;;;5006362;28;20431;-78
2022/10/14 05:09:18;;;;;;;9.70;8.73;;;;;;;;;;5003526;28;20540;-77
2022/10/14 05:11:44;;;;;;;10.20;9.20;;;;;;;;;;5007052;28;20427;-77
2022/10/14 05:14:10;;;;;;;11.47;10.47;;;;;;;;;;5003886;28;20770;-77
2022/10/14 05:16:36;;;;;;;9.90;9.27;;;;;;;;;;5006892;28;20518;-78
2022/10/14 05:19:03;;;;;;;11.30;10.40;;;;;;;;;;5003540;28;20427;-78
2022/10/14 05:21:28;;;;;;;12.10;11.00;;;;;;;;;;5007144;28;20518;-78
2022/10/14 05:23:54;;;;;;;11.23;10.33;;;;;;;;;;5003901;28;20993;-78
2022/10/14 05:26:20;;;;;;;13.40;12.20;;;;;;;;;;5006476;28;20431;-78
2022/10/14 05:28:46;;;;;;;14.07;12.10;;;;;;;;;;5005798;28;20471;-78
2022/10/14 05:31:12;;;;;;;14.07;12.60;;;;;;;;;;5004992;28;20949;-78
2022/10/14 05:33:38;;;;;;;12.80;10.77;;;;;;;;;;5004428;28;20439;-77
2022/10/14 05:36:05;;;;;;;14.13;12.80;;;;;;;;;;5004593;28;20767;-78
2022/10/14 05:38:32;;;;;;;14.10;12.70;;;;;;;;;;5005005;28;20439;-79
2022/10/14 05:40:58;;;;;;;14.13;12.93;;;;;;;;;;5004834;28;20435;-78
2022/10/14 05:43:25;;;;;;;13.70;12.33;;;;;;;;;;5004736;28;20805;-78
2022/10/14 05:45:51;;;;;;;14.13;12.67;;;;;;;;;;5000400;28;20445;-78
2022/10/14 05:48:17;;;;;;;13.47;12.17;;;;;;;;;;5003739;28;20463;-78
2022/10/14 05:50:43;;;;;;;12.43;11.17;;;;;;;;;;5003482;28;20793;-79
2022/10/14 05:53:10;;;;;;;12.47;9.83;;;;;;;;;;4655184;28;9999745;-77
2022/10/14 05:55:36;;;;;;;12.10;11.00;;;;;;;;;;5001399;28;20196;-78
2022/10/14 05:58:02;;;;;;;12.43;11.37;;;;;;;;;;5001099;28;20496;-78
2022/10/14 06:00:29;;;;;;;11.00;10.00;;;;;;;;;;5001297;28;20949;-78
2022/10/14 06:02:57;;;;;;;10.40;9.40;;;;;;;;;;5002895;28;20439;-77
2022/10/14 06:05:25;;;;;;;11.63;10.50;;;;;;;;;;5008427;28;20527;-78
2022/10/14 06:07:52;;;;;;;11.93;10.87;;;;;;;;;;5001971;28;20463;-78
2022/10/14 06:10:18;;;;;;;10.13;9.30;;;;;;;;;;4999559;28;21201;-76
2022/10/14 06:12:44;;;;;;;10.17;9.37;;;;;;;;;;5000454;28;21082;-78
2022/10/14 06:15:10;;;;;;;10.43;9.70;;;;;;;;;;5000234;28;20454;-79
2022/10/14 06:17:36;;;;;;;10.60;9.70;;;;;;;;;;5032810;28;20447;-79
2022/10/14 06:20:02;;;;;;;11.13;10.07;;;;;;;;;;5001402;28;20442;-79
2022/10/14 06:22:28;;;;;;;10.33;9.53;;;;;;;;;;5003022;28;20435;-78
2022/10/14 06:24:54;;;;;;;11.00;10.10;;;;;;;;;;4999471;28;20502;-78
2022/10/14 06:27:20;;;;;;;8.80;8.20;;;;;;;;;;5002560;28;20465;-77
2022/10/14 06:29:46;;;;;;;8.67;8.10;;;;;;;;;;4998470;28;20431;-78
2022/10/14 06:32:12;;;;;;;7.27;6.80;;;;;;;;;;5002543;28;20428;-78
2022/10/14 06:34:38;;;;;;;8.47;7.97;;;;;;;;;;4998875;28;20566;-76
2022/10/14 06:37:04;;;;;;;7.00;6.70;;;;;;;;;;5002521;28;20476;-77
2022/10/14 06:39:30;;;;;;;7.23;6.70;;;;;;;;;;5030435;28;20889;-77
2022/10/14 06:41:56;;;;;;;7.70;7.10;;;;;;;;;;5001528;28;20578;-78
2022/10/14 06:44:22;;;;;;;7.97;7.40;;;;;;;;;;4994682;28;20506;-76
2022/10/14 06:46:50;;;;;;;6.50;6.00;;;;;;;;;;5002178;28;20467;-77
2022/10/14 06:49:16;;;;;;;7.67;7.07;;;;;;;;;;4998666;28;20483;-77
2022/10/14 06:51:44;;;;;;;7.17;6.77;;;;;;;;;;5002391;28;20447;-78
2022/10/14 06:54:10;;;;;;;6.13;5.80;;;;;;;;;;5004625;28;21016;-78
2022/10/14 06:56:36;;;;;;;6.83;6.33;;;;;;;;;;5002287;28;20520;-78
2022/10/14 06:59:04;;;;;;;5.97;5.50;;;;;;;;;;4998787;28;20807;-76
2022/10/14 07:01:30;;;;;;;5.90;5.60;;;;;;;;;;5000338;28;20727;-77
2022/10/14 07:03:56;;;;;;;6.03;5.63;;;;;;;;;;4999671;28;20452;-77
2022/10/14 07:06:22;;;;;;;5.30;4.90;;;;;;;;;;5000608;28;20447;-78
2022/10/14 07:08:48;;;;;;;5.90;5.70;;;;;;;;;;5001760;28;20824;-77
2022/10/14 07:11:14;;;;;;;6.60;6.20;;;;;;;;;;5002991;28;20478;-77
2022/10/14 07:13:40;;;;;;;5.17;4.97;;;;;;;;;;5004054;28;20658;-78
2022/10/14 07:16:09;;;;;;;4.43;4.23;;;;;;;;;;5003309;28;21226;-79
2022/10/14 07:18:35;;;;;;;5.00;4.80;;;;;;;;;;5008016;28;20431;-79
2022/10/14 07:21:02;;;;;;;5.13;4.83;;;;;;;;;;5006022;28;20457;-78
2022/10/14 07:23:28;;;;;;;5.20;4.97;;;;;;;;;;5007541;28;20461;-78
2022/10/14 07:25:58;;;;;;;5.00;4.60;;;;;;;;;;5006591;28;20451;-78
2022/10/14 07:28:24;;;;;;;5.17;4.83;;;;;;;;;;5006934;28;20534;-78
2022/10/14 07:31:04;;;;;;;4.97;4.70;;;;;;;;;;5007296;28;20446;-77
2022/10/14 07:33:30;;;;;;;5.07;4.83;;;;;;;;;;5006170;28;21008;-79
2022/10/14 07:36:01;;;;;;;4.73;4.53;;;;;;;;;;5006813;28;20447;-78
2022/10/14 07:38:30;;;;;;;5.07;4.80;;;;;;;;;;4992664;28;20947;-78
2022/10/14 07:41:00;;;;;;;5.10;4.70;;;;;;;;;;5006918;28;20522;-78
2022/10/14 07:43:26;;;;;;;5.23;4.67;;;;;;;;;;5007332;28;20478;-78
2022/10/14 07:45:59;;;;;;;5.67;5.27;;;;;;;;;;5002758;28;20435;-79
2022/10/14 07:48:25;;;;;;;4.03;3.90;;;;;;;;;;4998830;28;20957;-79
2022/10/14 07:50:51;;;;;;;4.23;4.00;;;;;;;;;;5005837;28;20443;-77
2022/10/14 07:53:18;;;;;;;4.60;4.30;;;;;;;;;;5006879;28;20866;-78
2022/10/14 07:55:51;;;;;;;3.60;3.50;;;;;;;;;;5006126;28;20667;-77
2022/10/14 07:58:23;;;;;;;3.63;3.53;;;;;;;;;;4991005;28;20485;-77
2022/10/14 08:00:50;;;;;;;3.37;3.33;;;;;;;;;;5004493;28;20440;-77
2022/10/14 08:03:17;;;;;;;3.90;3.60;;;;;;;;;;5006291;28;20477;-78
2022/10/14 08:05:43;;;;;;;3.87;3.67;;;;;;;;;;5006130;28;20501;-76
2022/10/14 08:08:09;;;;;;;3.30;3.20;;;;;;;;;;5006595;28;20550;-76
2022/10/14 08:10:36;;;;;;;3.67;3.57;;;;;;;;;;5019964;28;20435;-76
2022/10/14 08:13:05;;;;;;;3.90;3.53;;;;;;;;;;5020883;28;20906;-75
2022/10/14 08:15:39;;;;;;;2.93;2.77;;;;;;;;;;5024821;28;20448;-75
2022/10/14 08:18:05;;;;;;;3.17;3.17;;;;;;;;;;4993841;28;20416;-77
2022/10/14 08:20:32;;;;;;;2.40;2.40;;;;;;;;;;4658545;28;10000132;-77
2022/10/14 08:22:58;;;;;;;6.03;3.17;;;;;;;;;;5003275;28;20211;-76
2022/10/14 08:25:24;;;;;;;2.97;2.97;;;;;;;;;;5003502;28;20459;-76
2022/10/14 08:27:53;;;;;;;2.87;2.87;;;;;;;;;;5003683;28;20467;-78
2022/10/14 08:30:19;;;;;;;2.97;2.97;;;;;;;;;;4997771;28;20447;-77
2022/10/14 08:32:45;;;;;;;2.70;2.50;;;;;;;;;;5008271;28;20822;-77
2022/10/14 08:35:11;;;;;;;2.23;2.10;;;;;;;;;;5002393;28;20435;-76
2022/10/14 08:37:37;;;;;;;2.33;2.33;;;;;;;;;;5008180;28;20411;-78
2022/10/14 08:40:04;;;;;;;2.43;2.23;;;;;;;;;;5004449;28;20438;-76
2022/10/14 08:42:37;;;;;;;2.27;2.27;;;;;;;;;;5006869;28;20784;-78
2022/10/14 08:45:14;;;;;;;2.67;2.67;;;;;;;;;;5002847;28;20450;-77
2022/10/14 08:47:42;;;;;;;2.53;2.53;;;;;;;;;;5007554;28;20815;-77
2022/10/14 08:50:17;;;;;;;2.83;2.63;;;;;;;;;;5003696;28;20522;-76
2022/10/14 08:52:55;;;;;;;2.40;2.33;;;;;;;;;;5007480;28;20842;-77
2022/10/14 08:55:27;;;;;;;2.17;2.07;;;;;;;;;;5003935;28;20463;-77
2022/10/14 08:58:01;;;;;;;2.00;2.00;;;;;;;;;;5007658;28;20420;-79
2022/10/14 09:00:30;;;;;;;2.10;2.10;;;;;;;;;;5004129;28;21206;-79
2022/10/14 09:02:58;;;;;;;1.90;1.90;;;;;;;;;;5007484;28;20438;-77
2022/10/14 09:05:25;;;;;;;2.37;2.37;;;;;;;;;;5004845;28;20485;-77
2022/10/14 09:07:53;;;;;;;1.92;1.92;;;;;;;;;;4659789;28;10000155;-77
2022/10/14 09:10:26;;;;;;;2.13;2.13;;;;;;;;;;5001458;28;20271;-77
2022/10/14 09:12:53;;;;;;;2.00;1.90;;;;;;;;;;5004341;28;20451;-77
2022/10/14 09:15:22;;;;;;;1.90;1.90;;;;;;;;;;4999701;28;20487;-78
2022/10/14 09:17:55;;;;;;;2.13;2.13;;;;;;;;;;5004232;28;20423;-77
2022/10/14 09:20:22;;;;;;;1.80;1.80;;;;;;;;;;5031788;28;20447;-78
2022/10/14 09:23:09;;;;;;;1.93;1.83;;;;;;;;;;5002831;28;20427;-78
2022/10/14 09:25:36;;;;;;;2.60;2.50;;;;;;;;;;5000994;28;20461;-79
2022/10/14 09:28:03;;;;;;;2.40;2.30;;;;;;;;;;5003878;28;21021;-78
2022/10/14 09:30:33;;;;;;;2.40;2.30;;;;;;;;;;5000235;28;20681;-79
2022/10/14 09:32:59;;;;;;;1.73;1.73;;;;;;;;;;5003063;28;20649;-79
2022/10/14 09:35:27;;;;;;;1.73;1.73;;;;;;;;;;5000237;28;20451;-77
2022/10/14 09:37:53;;;;;;;1.97;1.97;;;;;;;;;;4656414;28;10000652;-77
2022/10/14 09:40:26;;;;;;;1.80;1.80;;;;;;;;;;4995821;28;20192;-77
2022/10/14 09:42:58;;;;;;;2.10;2.10;;;;;;;;;;5008056;28;20412;-78
2022/10/14 09:45:25;;;;;;;2.27;2.17;;;;;;;;;;5003959;28;20443;-78
2022/10/14 09:48:05;;;;;;;1.87;1.87;;;;;;;;;;5006185;28;20466;-77
2022/10/14 09:50:38;;;;;;;2.00;2.00;;;;;;;;;;5002454;28;20835;-77
2022/10/14 09:53:06;;;;;;;2.40;2.30;;;;;;;;;;5005354;28;20446;-78
2022/10/14 09:55:33;;;;;;;2.23;2.23;;;;;;;;;;5002099;28;20521;-78
2022/10/14 09:58:07;;;;;;;2.10;1.97;;;;;;;;;;5005292;28;20779;-78
2022/10/14 10:00:35;;;;;;;2.20;2.20;;;;;;;;;;5003420;28;20808;-77
2022/10/14 10:03:01;;;;;;;2.20;2.20;;;;;;;;;;5006812;28;20801;-78
2022/10/14 10:05:29;;;;;;;2.27;2.27;;;;;;;;;;5003128;28;20957;-77
2022/10/14 10:08:00;;;;;;;2.30;2.30;;;;;;;;;;5006770;28;20573;-78
2022/10/14 10:10:29;;;;;;;2.30;2.30;;;;;;;;;;5003000;28;20534;-78
2022/10/14 10:12:56;;;;;;;1.93;1.93;;;;;;;;;;5006255;28;20467;-78
2022/10/14 10:15:22;;;;;;;2.30;2.30;;;;;;;;;;5003656;28;20446;-78
2022/10/14 10:17:48;;;;;;;2.47;2.47;;;;;;;;;;5009256;28;20438;-77
2022/10/14 10:20:17;;;;;;;2.27;2.27;;;;;;;;;;5016406;28;20447;-79
2022/10/14 10:22:43;;;;;;;2.20;2.10;;;;;;;;;;5011224;28;20933;-79
2022/10/14 10:25:09;;;;;;;2.20;2.20;;;;;;;;;;5004178;28;20506;-80
2022/10/14 10:27:36;;;;;;;1.90;1.90;;;;;;;;;;5005240;28;20925;-78
2022/10/14 10:30:15;;;;;;;3.74;3.46;;;;;;;;;;4655129;28;10000213;-77
2022/10/14 10:32:46;;;;;;;2.87;2.87;;;;;;;;;;5002961;28;20717;-79
2022/10/14 10:35:22;;;;;;;2.53;2.20;;;;;;;;;;4996724;28;20672;-78
2022/10/14 10:37:57;;;;;;;2.37;2.37;;;;;;;;;;5005915;28;20864;-77
2022/10/14 10:40:40;;;;;;;2.40;2.40;;;;;;;;;;4998283;28;20446;-79
2022/10/14 10:43:10;;;;;;;2.83;2.63;;;;;;;;;;5010760;28;20504;-78
2022/10/14 10:45:54;;;;;;;3.13;2.93;;;;;;;;;;5003700;28;20595;-79
2022/10/14 10:48:39;;;;;;;2.30;2.30;;;;;;;;;;4986226;28;20455;-78
2022/10/14 10:51:09;;;;;;;3.50;2.00;;;;;;;;;;4992564;28;20431;-81
2022/10/14 10:53:44;;;;;;;2.70;2.60;;;;;;;;;;5002413;28;20443;-78
2022/10/14 10:56:47;;;;;;;2.50;2.50;;;;;;;;;;5001845;28;20439;-79
2022/10/14 10:59:19;;;;;;;4.00;3.83;;;;;;;;;;4942591;28;21093;-79
2022/10/14 11:02:03;;;;;;;2.20;2.20;;;;;;;;;;4994444;28;20439;-79
2022/10/14 11:04:31;;;;;;;2.90;2.90;;;;;;;;;;5002209;28;20439;-81
2022/10/14 11:13:26;;;;;;;3.23;3.07;;;;;;;;;;4995672;28;20463;-80
2022/10/14 11:15:57;;;;;;;2.53;2.53;;;;;;;;;;4952979;28;20505;-80
2022/10/14 11:18:44;;;;;;;3.00;3.00;;;;;;;;;;4928613;29;20442;-79
2022/10/14 11:21:13;;;;;;;3.10;3.00;;;;;;;;;;4972648;28;20451;-79
2022/10/14 11:23:58;;;;;;;4.13;3.83;;;;;;;;;;5003115;28;20428;-79
2022/10/14 11:26:40;;;;;;;3.67;3.57;;;;;;;;;;5003701;28;20608;-79
2022/10/14 11:29:25;;;;;;;3.83;3.70;;;;;;;;;;4988647;28;20462;-79
2022/10/14 11:31:57;;;;;;;3.97;3.87;;;;;;;;;;5003816;28;20431;-79
2022/10/14 11:34:23;;;;;;;4.50;4.30;;;;;;;;;;4990383;28;20809;-79
2022/10/14 11:36:49;;;;;;;4.47;4.33;;;;;;;;;;5004462;28;20474;-80
2022/10/14 11:39:24;;;;;;;3.93;3.83;;;;;;;;;;5002909;28;20450;-79
2022/10/14 11:41:56;;;;;;;5.03;4.53;;;;;;;;;;5003613;28;20475;-79
2022/10/14 11:44:28;;;;;;;4.13;4.03;;;;;;;;;;4650509;28;10000377;-79
2022/10/14 11:46:57;;;;;;;5.07;4.77;;;;;;;;;;5000321;28;20260;-77
2022/10/14 11:49:46;;;;;;;5.47;5.13;;;;;;;;;;5000432;28;20486;-76
2022/10/14 11:52:35;;;;;;;5.00;4.70;;;;;;;;;;4987696;28;20637;-79
2022/10/14 11:55:04;;;;;;;5.80;5.40;;;;;;;;;;4993642;28;20460;-79
2022/10/14 11:57:44;;;;;;;6.60;5.97;;;;;;;;;;4999959;28;21161;-80
2022/10/14 12:00:12;;;;;;;5.93;5.60;;;;;;;;;;5000688;28;20482;-79
2022/10/14 12:02:57;;;;;;;6.33;5.83;;;;;;;;;;5034743;28;20742;-79
2022/10/14 12:05:30;;;;;;;6.60;6.07;;;;;;;;;;5004331;28;20438;-79
2022/10/14 12:08:15;;;;;;;7.80;6.57;;;;;;;;;;4987871;28;20466;-78
2022/10/14 12:10:46;;;;;;;6.90;6.40;;;;;;;;;;5003874;28;20463;-78
2022/10/14 12:13:16;;;;;;;7.20;6.50;;;;;;;;;;5007914;28;20459;-78
2022/10/14 12:15:44;;;;;;;7.77;7.07;;;;;;;;;;5005036;28;20514;-78
2022/10/14 12:18:14;;;;;;;9.77;7.00;;;;;;;;;;5006529;28;20445;-76
2022/10/14 12:20:48;;;;;;;6.70;6.10;;;;;;;;;;5005224;28;20515;-78
2022/10/14 12:23:49;;;;;;;6.73;6.13;;;;;;;;;;4988891;28;21012;-78
2022/10/14 12:26:27;;;;;;;8.90;7.77;;;;;;;;;;4973269;28;20485;-79
2022/10/14 12:28:53;;;;;;;8.40;7.80;;;;;;;;;;4994231;28;20557;-78
2022/10/14 12:31:19;;;;;;;10.03;7.47;;;;;;;;;;5009114;28;20442;-78
2022/10/14 12:34:04;;;;;;;8.57;7.77;;;;;;;;;;5009942;28;20969;-78
2022/10/14 12:36:31;;;;;;;7.77;7.20;;;;;;;;;;5007197;28;20443;-77
2022/10/14 12:39:15;;;;;;;7.70;7.20;;;;;;;;;;5005563;28;20430;-78
2022/10/14 12:41:47;;;;;;;7.40;6.90;;;;;;;;;;5006194;28;20451;-79
2022/10/14 12:44:17;;;;;;;7.97;7.40;;;;;;;;;;4989599;28;20439;-77
2022/10/14 12:46:44;;;;;;;7.60;7.00;;;;;;;;;;5006347;28;20436;-78
2022/10/14 12:49:30;;;;;;;5.63;5.27;;;;;;;;;;5005501;28;20934;-76
2022/10/14 12:52:00;;;;;;;5.17;5.07;;;;;;;;;;5005677;28;20917;-77
2022/10/14 12:54:27;;;;;;;6.67;6.27;;;;;;;;;;4999195;28;20455;-77
2022/10/14 12:56:58;;;;;;;6.23;5.93;;;;;;;;;;5005901;28;20553;-77
2022/10/14 12:59:30;;;;;;;4.83;4.63;;;;;;;;;;4656914;28;10000204;-77
2022/10/14 13:01:57;;;;;;;5.30;5.00;;;;;;;;;;5002129;28;20432;-77
2022/10/14 13:04:28;;;;;;;6.13;5.82;;;;;;;;;;4818593;28;10000803;-78
2022/10/14 13:07:13;;;;;;;7.03;6.43;;;;;;;;;;5000681;28;20412;-78
2022/10/14 13:09:39;;;;;;;6.40;6.00;;;;;;;;;;5002362;28;20562;-77
2022/10/14 13:12:08;;;;;;;4.60;4.40;;;;;;;;;;5001823;28;20816;-78
2022/10/14 13:14:54;;;;;;;5.30;5.10;;;;;;;;;;5002602;28;20435;-79
2022/10/14 13:17:26;;;;;;;4.77;4.57;;;;;;;;;;4997926;28;20450;-79
2022/10/14 13:19:52;;;;;;;5.50;5.20;;;;;;;;;;5002386;28;20898;-78
2022/10/14 13:22:18;;;;;;;5.70;5.40;;;;;;;;;;5002155;28;20530;-79
2022/10/14 13:24:44;;;;;;;5.67;5.37;;;;;;;;;;5002670;28;20972;-78
2022/10/14 13:27:14;;;;;;;5.90;5.60;;;;;;;;;;5001284;28;20439;-78
2022/10/14 13:29:46;;;;;;;7.63;5.60;;;;;;;;;;5002192;28;20533;-78
2022/10/14 13:32:31;;;;;;;5.70;5.30;;;;;;;;;;5002650;28;20561;-81
2022/10/14 13:35:12;;;;;;;6.10;5.50;;;;;;;;;;5002339;28;21137;-79
2022/10/14 13:37:41;;;;;;;5.90;5.50;;;;;;;;;;5002278;28;20462;-78
2022/10/14 13:40:16;;;;;;;6.10;5.40;;;;;;;;;;5033503;28;20825;-78
2022/10/14 13:42:42;;;;;;;6.40;5.90;;;;;;;;;;4997218;28;20866;-79
2022/10/14 13:45:13;;;;;;;5.30;5.00;;;;;;;;;;4998794;28;20434;-79
2022/10/14 13:47:48;;;;;;;5.53;5.30;;;;;;;;;;5001422;28;20641;-78
2022/10/14 13:50:16;;;;;;;6.37;5.97;;;;;;;;;;4994446;28;20722;-78
2022/10/14 13:52:45;;;;;;;6.87;6.37;;;;;;;;;;5000122;28;20846;-79
2022/10/14 13:55:21;;;;;;;6.70;6.30;;;;;;;;;;5001352;28;20967;-76
2022/10/14 13:58:19;;;;;;;7.47;6.20;;;;;;;;;;5001356;28;20836;-79
2022/10/14 14:00:57;;;;;;;7.00;6.50;;;;;;;;;;4976302;28;20517;-77
2022/10/14 14:03:25;;;;;;;5.30;5.03;;;;;;;;;;5005159;28;20443;-78
2022/10/14 14:05:52;;;;;;;7.93;7.33;;;;;;;;;;5000946;28;20427;-79
2022/10/14 14:08:21;;;;;;;7.10;6.60;;;;;;;;;;5004910;28;20478;-80
2022/10/14 14:10:55;;;;;;;6.83;6.47;;;;;;;;;;5003107;28;21052;-78
2022/10/14 14:13:22;;;;;;;6.80;6.17;;;;;;;;;;4986850;28;20498;-77
2022/10/14 14:15:49;;;;;;;5.97;5.53;;;;;;;;;;5002262;28;20447;-78
2022/10/14 14:18:34;;;;;;;7.47;6.77;;;;;;;;;;5005660;28;20442;-78
2022/10/14 14:21:00;;;;;;;6.93;6.43;;;;;;;;;;5001059;28;20979;-76
2022/10/14 14:23:27;;;;;;;7.57;6.97;;;;;;;;;;5004393;28;20452;-80
2022/10/14 14:25:53;;;;;;;6.57;6.07;;;;;;;;;;5002593;28;20435;-80
2022/10/14 14:28:23;;;;;;;7.30;6.67;;;;;;;;;;5006195;28;20502;-77
2022/10/14 14:30:53;;;;;;;8.83;7.87;;;;;;;;;;5009118;28;20494;-78
2022/10/14 14:33:25;;;;;;;8.13;6.57;;;;;;;;;;5017815;28;20428;-77
2022/10/14 14:35:53;;;;;;;6.67;6.03;;;;;;;;;;5000429;28;20465;-78
2022/10/14 14:38:27;;;;;;;7.83;7.13;;;;;;;;;;5006599;28;20432;-79
2022/10/14 14:41:01;;;;;;;6.47;6.10;;;;;;;;;;5002183;28;20466;-77
2022/10/14 14:43:28;;;;;;;8.13;7.30;;;;;;;;;;5005916;28;20439;-77
2022/10/14 14:45:54;;;;;;;7.87;7.27;;;;;;;;;;4999256;28;20888;-78
2022/10/14 14:48:20;;;;;;;7.83;7.10;;;;;;;;;;5006014;28;20841;-79
2022/10/14 14:50:47;;;;;;;7.27;6.67;;;;;;;;;;4652486;28;9999994;-76